Time;durP1;ratioP1;P1;durP2;ratioP2;P2;SDS_P1;SDS_P2;PMS_P1;PMS_P2;Temp;Humidity;BMP_temperature;BMP_pressure;BME280_temperature;BME280_humidity;BME280_pressure;Samples;Min_cycle;Max_cycle;Signal;HPM_P1;HPM_P2
2021/06/01 00:02:38;;;;;;;;;;;;;;;;;;;;;
2021/06/01 00:13:15;;;;;;;7.20;6.30;;;19.90;99.90;;;;;;4873885;29;20587;-81
2021/06/01 00:20:25;;;;;;;;;;;;;;;;;;;;;
2021/06/01 00:23:54;;;;;;;9.37;6.10;;;19.80;1.00;;;;;;4797914;29;20189;-81
2021/06/01 00:30:09;;;;;;;11.83;7.37;;;19.40;1.00;;;;;;4841094;29;20257;-81
2021/06/01 00:33:24;;;;;;;7.73;6.77;;;19.20;92.10;;;;;;4843671;29;20279;-81
2021/06/01 00:37:05;;;;;;;9.63;6.37;;;19.10;99.90;;;;;;4859637;29;20195;-81
2021/06/01 00:40:08;;;;;;;9.27;6.77;;;19.00;99.90;;;;;;4800107;29;20739;-81
2021/06/01 00:49:35;;;;;;;11.60;6.83;;;18.80;99.90;;;;;;4829870;29;20721;-81
2021/06/01 00:52:45;;;;;;;8.47;5.90;;;18.80;99.90;;;;;;4877792;29;20638;-81
2021/06/01 00:59:35;;;;;;;;;;;;;;;;;;;;;
2021/06/01 01:05:30;;;;;;;7.43;6.10;;;18.70;99.90;;;;;;4922741;29;20288;-81
2021/06/01 01:15:33;;;;;;;7.03;5.90;;;18.70;99.90;;;;;;4904045;29;20209;-81
2021/06/01 01:18:06;;;;;;;10.03;5.50;;;18.80;99.90;;;;;;4939732;29;20629;-81
2021/06/01 01:21:28;;;;;;;9.23;5.73;;;18.90;99.90;;;;;;4954559;28;20235;-81
2021/06/01 01:24:16;;;;;;;7.93;5.23;;;18.70;99.90;;;;;;4900435;29;20182;-80
2021/06/01 01:27:14;;;;;;;10.30;5.93;;;18.70;99.90;;;;;;4951186;28;20228;-81
2021/06/01 01:29:52;;;;;;;10.47;6.20;;;19.00;99.90;;;;;;4994005;28;20298;-81
2021/06/01 01:32:54;;;;;;;10.57;6.10;;;18.80;99.90;;;;;;4997400;28;20179;-81
2021/06/01 01:35:24;;;;;;;8.10;6.17;;;18.80;99.90;;;;;;4995810;28;20202;-81
2021/06/01 01:37:52;;;;;;;8.70;6.80;;;18.90;99.90;;;;;;5005719;28;20175;-80
2021/06/01 01:40:23;;;;;;;10.93;7.07;;;18.80;99.90;;;;;;5014918;28;20171;-80
2021/06/01 01:42:59;;;;;;;12.40;6.83;;;18.70;99.90;;;;;;5000525;28;20167;-81
2021/06/01 01:45:34;;;;;;;11.70;7.17;;;18.60;1.00;;;;;;4998294;28;20167;-82
2021/06/01 01:51:25;;;;;;;10.10;6.80;;;18.80;99.90;;;;;;4997834;28;20257;-81
2021/06/01 01:53:59;;;;;;;9.60;6.70;;;18.90;99.90;;;;;;4997303;28;20210;-81
2021/06/01 01:57:08;;;;;;;10.13;6.83;;;18.80;99.90;;;;;;4999340;28;20171;-81
2021/06/01 01:59:51;;;;;;;9.93;6.97;;;19.00;99.90;;;;;;4991341;28;20250;-81
2021/06/01 02:03:15;;;;;;;8.20;6.57;;;19.10;99.90;;;;;;4988758;28;20171;-81
2021/06/01 02:05:44;;;;;;;8.37;6.33;;;19.20;99.90;;;;;;4996187;28;20210;-81
2021/06/01 02:12:02;;;;;;;11.30;7.20;;;19.30;99.90;;;;;;4997337;28;20217;-81
2021/06/01 02:14:30;;;;;;;9.53;6.47;;;19.20;99.90;;;;;;4997371;28;20179;-81
2021/06/01 02:17:14;;;;;;;9.47;6.90;;;19.10;99.90;;;;;;4996952;28;20244;-81
2021/06/01 02:19:41;;;;;;;9.83;7.17;;;19.10;99.90;;;;;;4996921;28;20163;-81
2021/06/01 02:25:19;;;;;;;10.13;7.00;;;18.90;99.90;;;;;;5003342;28;20280;-81
2021/06/01 02:28:17;;;;;;;10.57;7.57;;;18.80;99.90;;;;;;4996849;28;20214;-81
2021/06/01 02:30:54;;;;;;;9.03;6.70;;;18.90;99.90;;;;;;4997368;28;20654;-81
2021/06/01 02:33:23;;;;;;;8.23;6.93;;;18.80;99.90;;;;;;5003020;28;20631;-81
2021/06/01 02:35:50;;;;;;;10.73;7.23;;;18.90;99.90;;;;;;5005699;28;20635;-80
2021/06/01 02:38:18;;;;;;;8.60;7.10;;;18.90;99.90;;;;;;4996505;28;20779;-81
2021/06/01 02:40:46;;;;;;;10.00;6.73;;;18.90;99.90;;;;;;4997016;28;20239;-81
2021/06/01 02:43:14;;;;;;;9.93;7.00;;;19.00;99.90;;;;;;4996866;28;20633;-81
2021/06/01 02:45:44;;;;;;;9.63;7.03;;;19.00;99.90;;;;;;4996191;28;20263;-81
2021/06/01 02:48:14;;;;;;;10.73;6.93;;;18.90;99.90;;;;;;4996173;28;20175;-81
2021/06/01 02:50:42;;;;;;;10.57;7.10;;;18.80;99.90;;;;;;4996833;28;20643;-81
2021/06/01 02:53:10;;;;;;;12.33;6.77;;;18.80;99.90;;;;;;4997248;28;20167;-81
2021/06/01 02:55:37;;;;;;;9.53;6.73;;;18.90;99.90;;;;;;4997918;28;20199;-81
2021/06/01 02:58:07;;;;;;;11.23;6.53;;;18.90;99.90;;;;;;5001468;28;20178;-81
2021/06/01 03:00:35;;;;;;;9.43;6.27;;;18.90;99.90;;;;;;5006843;28;20159;-81
2021/06/01 03:03:09;;;;;;;10.53;6.70;;;19.00;1.00;;;;;;5002063;28;20175;-81
2021/06/01 03:05:36;;;;;;;9.63;6.30;;;19.00;1.00;;;;;;4996323;28;20196;-81
2021/06/01 03:08:25;;;;;;;9.53;6.03;;;19.00;1.00;;;;;;4995972;28;20184;-81
2021/06/01 03:10:51;;;;;;;10.03;6.20;;;18.90;1.00;;;;;;4995671;28;20194;-81
2021/06/01 03:13:18;;;;;;;7.43;5.80;;;18.90;1.00;;;;;;4998209;28;20202;-80
2021/06/01 03:15:43;;;;;;;12.23;6.43;;;18.70;1.00;;;;;;5008475;28;20190;-81
2021/06/01 03:18:09;;;;;;;8.00;6.00;;;18.50;54.80;;;;;;5006590;28;20171;-81
2021/06/01 03:20:35;;;;;;;8.53;6.03;;;18.50;99.90;;;;;;5008005;28;20170;-81
2021/06/01 03:23:02;;;;;;;8.57;6.00;;;18.60;41.50;;;;;;5009651;28;20227;-81
2021/06/01 03:25:30;;;;;;;8.53;6.10;;;18.60;1.00;;;;;;4996694;28;20159;-81
2021/06/01 03:28:01;;;;;;;9.50;5.70;;;18.70;1.00;;;;;;5010998;28;20219;-81
2021/06/01 03:30:30;;;;;;;9.00;6.03;;;18.80;1.00;;;;;;4995531;28;20635;-80
2021/06/01 03:32:57;;;;;;;11.47;6.73;;;18.80;1.00;;;;;;4996577;28;20506;-81
2021/06/01 03:36:04;;;;;;;9.53;6.60;;;18.70;1.00;;;;;;4995973;28;20167;-81
2021/06/01 03:39:20;;;;;;;;;;;;;;;;;;;;;
2021/06/01 03:41:58;;;;;;;10.07;6.53;;;18.70;1.00;;;;;;4969436;28;20183;-81
2021/06/01 03:44:24;;;;;;;12.07;6.37;;;18.60;99.90;;;;;;4985179;28;20187;-83
2021/06/01 03:46:52;;;;;;;8.73;5.77;;;18.60;99.90;;;;;;4994175;28;20253;-83
2021/06/01 03:49:18;;;;;;;8.97;5.70;;;18.60;99.90;;;;;;4995385;28;20182;-83
2021/06/01 03:51:44;;;;;;;9.70;5.50;;;18.50;99.90;;;;;;4995760;28;20687;-80
2021/06/01 03:54:10;;;;;;;9.67;5.07;;;18.40;99.90;;;;;;4995342;28;20212;-80
2021/06/01 03:56:37;;;;;;;10.00;5.70;;;18.30;1.00;;;;;;4995425;28;20217;-80
2021/06/01 03:59:04;;;;;;;7.20;5.27;;;18.30;1.00;;;;;;4995781;28;20171;-81
2021/06/01 04:01:33;;;;;;;8.90;5.17;;;18.40;1.00;;;;;;4994333;28;20524;-80
2021/06/01 04:04:01;;;;;;;10.20;5.20;;;18.50;1.00;;;;;;4995524;28;20258;-81
2021/06/01 04:07:02;;;;;;;7.47;4.83;;;18.40;99.90;;;;;;4994994;28;20291;-81
2021/06/01 04:09:29;;;;;;;10.33;5.57;;;18.50;99.90;;;;;;4994879;28;20541;-80
2021/06/01 04:11:55;;;;;;;7.87;4.97;;;18.50;1.00;;;;;;4995119;28;20668;-81
2021/06/01 04:14:21;;;;;;;7.73;4.70;;;18.50;99.90;;;;;;4995206;28;20254;-80
2021/06/01 04:16:47;;;;;;;8.00;5.30;;;18.50;99.90;;;;;;5009791;28;20278;-81
2021/06/01 04:19:16;;;;;;;9.83;5.47;;;18.60;99.90;;;;;;4995046;28;20641;-80
2021/06/01 04:21:43;;;;;;;7.50;4.77;;;18.60;1.00;;;;;;4995644;28;20175;-80
2021/06/01 04:24:10;;;;;;;9.97;5.60;;;18.80;99.90;;;;;;4995668;28;20167;-81
2021/06/01 04:26:36;;;;;;;7.20;4.90;;;18.80;99.90;;;;;;5010263;28;20624;-81
2021/06/01 04:29:03;;;;;;;11.40;6.47;;;18.70;1.00;;;;;;4996824;28;20260;-80
2021/06/01 04:31:29;;;;;;;9.53;7.20;;;18.90;1.00;;;;;;5003165;28;20175;-78
2021/06/01 04:33:55;;;;;;;8.93;5.20;;;19.00;1.00;;;;;;5003245;28;20258;-81
2021/06/01 04:36:23;;;;;;;6.50;4.23;;;19.20;99.90;;;;;;4995926;28;20584;-81
2021/06/01 04:38:49;;;;;;;7.53;4.40;;;19.20;99.90;;;;;;4995606;28;20175;-81
2021/06/01 04:41:15;;;;;;;7.63;4.53;;;19.10;1.00;;;;;;5009910;28;20519;-81
2021/06/01 04:43:41;;;;;;;7.47;4.33;;;19.10;1.00;;;;;;4994849;28;20233;-80
2021/06/01 04:46:07;;;;;;;4.77;4.13;;;19.10;99.90;;;;;;4995460;28;20201;-80
2021/06/01 04:48:33;;;;;;;7.03;4.27;;;19.00;99.90;;;;;;5011685;28;20269;-80
2021/06/01 04:51:01;;;;;;;6.67;3.87;;;18.90;1.00;;;;;;4995354;28;20186;-79
2021/06/01 04:53:27;;;;;;;12.70;4.67;;;18.90;1.00;;;;;;5013927;28;20189;-80
2021/06/01 04:55:53;;;;;;;7.50;4.30;;;18.90;1.00;;;;;;4997676;28;20253;-83
2021/06/01 04:58:20;;;;;;;7.40;3.67;;;18.90;99.90;;;;;;5013759;28;20616;-82
2021/06/01 05:00:54;;;;;;;7.83;4.17;;;18.90;99.90;;;;;;4998855;28;20218;-82
2021/06/01 05:03:20;;;;;;;6.30;4.33;;;18.90;1.00;;;;;;4998985;28;20644;-84
2021/06/01 05:05:46;;;;;;;6.43;3.90;;;18.90;99.90;;;;;;4999025;28;20253;-83
2021/06/01 05:08:12;;;;;;;7.83;3.73;;;18.80;99.90;;;;;;4998414;28;20627;-83
2021/06/01 05:10:38;;;;;;;5.23;3.90;;;18.90;1.00;;;;;;4998689;28;20187;-82
2021/06/01 05:13:04;;;;;;;11.30;4.50;;;19.00;47.50;;;;;;4998586;28;20589;-83
2021/06/01 05:15:30;;;;;;;7.30;4.10;;;19.20;99.90;;;;;;4998213;28;20215;-83
2021/06/01 05:17:57;;;;;;;8.97;3.63;;;19.30;1.00;;;;;;4996769;28;20175;-82
2021/06/01 05:20:23;;;;;;;10.53;4.67;;;19.30;99.90;;;;;;5002215;28;20287;-83
2021/06/01 05:22:49;;;;;;;5.97;3.50;;;19.30;99.90;;;;;;5003226;28;20250;-80
2021/06/01 05:25:16;;;;;;;5.63;3.37;;;19.20;1.00;;;;;;4997879;28;20270;-81
2021/06/01 05:27:42;;;;;;;4.30;3.20;;;19.20;1.00;;;;;;4998141;28;20218;-81
2021/06/01 05:30:09;;;;;;;5.67;3.20;;;19.20;1.00;;;;;;4998393;28;20172;-81
2021/06/01 05:35:26;;;;;;;7.40;3.83;;;19.30;99.90;;;;;;4998876;28;20190;-81
2021/06/01 05:37:52;;;;;;;7.13;3.63;;;19.40;99.90;;;;;;4997703;28;20194;-80
2021/06/01 05:40:20;;;;;;;5.70;3.30;;;19.40;99.90;;;;;;4997238;28;20186;-81
2021/06/01 05:42:52;;;;;;;6.20;4.20;;;19.40;1.00;;;;;;4997821;28;20936;-81
2021/06/01 05:45:35;;;;;;;5.23;3.00;;;19.50;1.00;;;;;;4999487;28;20258;-80
2021/06/01 05:48:05;;;;;;;5.53;3.10;;;19.70;1.00;;;;;;4998807;28;20584;-80
2021/06/01 05:50:31;;;;;;;6.27;2.70;;;19.70;99.90;;;;;;5000473;28;20171;-80
2021/06/01 05:52:59;;;;;;;6.70;3.10;;;19.80;1.00;;;;;;5007991;28;20250;-81
2021/06/01 05:55:31;;;;;;;7.37;2.87;;;19.80;99.90;;;;;;5003572;28;20171;-81
2021/06/01 05:58:00;;;;;;;7.33;3.10;;;19.80;99.90;;;;;;5006354;28;20187;-80
2021/06/01 06:00:30;;;;;;;7.90;3.00;;;20.00;99.90;;;;;;4988529;28;20176;-80
2021/06/01 06:02:58;;;;;;;7.87;3.33;;;20.10;99.90;;;;;;4988763;28;20179;-81
2021/06/01 06:05:24;;;;;;;6.30;2.87;;;19.90;99.90;;;;;;5002136;28;20172;-80
2021/06/01 06:07:53;;;;;;;7.77;3.20;;;19.80;99.90;;;;;;5013135;28;20232;-80
2021/06/01 06:10:31;;;;;;;6.73;3.23;;;19.80;99.90;;;;;;4978518;28;20244;-80
2021/06/01 06:13:30;;;;;;;7.00;3.00;;;20.10;99.90;;;;;;4981407;28;20160;-83
2021/06/01 06:15:56;;;;;;;5.03;2.63;;;20.10;99.90;;;;;;4977552;28;20200;-81
2021/06/01 06:18:42;;;;;;;3.60;2.63;;;20.20;93.40;;;;;;4977556;28;20200;-80
2021/06/01 06:21:10;;;;;;;4.50;2.97;;;20.10;99.90;;;;;;4978349;28;20578;-80
2021/06/01 06:23:41;;;;;;;8.67;3.30;;;20.10;99.90;;;;;;4984211;28;20300;-80
2021/06/01 06:26:07;;;;;;;6.30;2.93;;;20.30;15.80;;;;;;4984644;28;20201;-81
2021/06/01 06:28:34;;;;;;;7.00;3.20;;;20.40;1.00;;;;;;4992947;28;20219;-81
2021/06/01 06:31:03;;;;;;;4.93;2.87;;;20.50;1.00;;;;;;4982595;28;20171;-81
2021/06/01 06:36:49;;;;;;;6.37;2.73;;;20.60;1.00;;;;;;4972390;28;20189;-82
2021/06/01 06:39:20;;;;;;;6.67;2.60;;;20.70;1.00;;;;;;4979214;28;20200;-82
2021/06/01 06:41:47;;;;;;;5.63;2.93;;;20.70;1.00;;;;;;4992866;28;20189;-82
2021/06/01 06:44:13;;;;;;;4.80;2.60;;;21.00;99.90;;;;;;4997352;28;20168;-82
2021/06/01 06:46:52;;;;;;;4.33;3.10;;;21.00;99.90;;;;;;4997602;28;20318;-81
2021/06/01 06:49:23;;;;;;;5.27;3.03;;;21.20;99.90;;;;;;4997465;28;20173;-81
2021/06/01 06:51:50;;;;;;;6.17;2.80;;;21.30;99.90;;;;;;5017525;28;20272;-84
2021/06/01 06:54:16;;;;;;;25.40;5.00;;;21.40;99.90;;;;;;5018995;28;20178;-82
2021/06/01 06:57:12;;;;;;;6.60;2.90;;;21.60;99.90;;;;;;5020207;28;20179;-82
2021/06/01 06:59:41;;;;;;;5.43;2.47;;;21.60;99.90;;;;;;5019539;28;20172;-83
2021/06/01 07:02:26;;;;;;;9.07;2.80;;;21.60;99.90;;;;;;5018463;28;20174;-83
2021/06/01 07:05:02;;;;;;;5.23;2.90;;;21.80;99.90;;;;;;5016244;28;20174;-82
2021/06/01 07:08:07;;;;;;;6.27;3.00;;;21.90;99.90;;;;;;5009420;28;20199;-83
2021/06/01 07:10:33;;;;;;;7.50;3.10;;;21.90;99.90;;;;;;4994241;28;20216;-82
2021/06/01 07:13:09;;;;;;;5.07;2.63;;;22.10;99.90;;;;;;4988328;28;20222;-84
2021/06/01 07:15:46;;;;;;;6.47;2.97;;;22.30;99.90;;;;;;4989767;28;20269;-82
2021/06/01 07:18:13;;;;;;;8.67;2.87;;;22.50;99.90;;;;;;4996779;28;20195;-82
2021/06/01 07:20:48;;;;;;;4.67;2.73;;;22.60;99.90;;;;;;5006017;28;20202;-82
2021/06/01 07:23:17;;;;;;;4.13;2.40;;;22.50;99.90;;;;;;5013630;28;20181;-83
2021/06/01 07:25:44;;;;;;;8.43;2.60;;;22.30;99.90;;;;;;4996892;28;20312;-82
2021/06/01 07:28:15;;;;;;;5.07;2.73;;;22.20;99.90;;;;;;4996159;28;20171;-82
2021/06/01 07:30:47;;;;;;;3.40;2.60;;;22.10;99.90;;;;;;4995944;28;20171;-82
2021/06/01 07:33:13;;;;;;;3.47;2.47;;;22.20;99.90;;;;;;4995936;28;20187;-82
2021/06/01 07:35:42;;;;;;;3.93;2.57;;;21.90;99.90;;;;;;4996821;28;20229;-82
2021/06/01 07:38:10;;;;;;;3.47;2.63;;;21.80;99.90;;;;;;4997644;28;20181;-82
2021/06/01 07:40:37;;;;;;;5.03;2.47;;;21.70;99.90;;;;;;5002860;28;20676;-81
2021/06/01 07:43:03;;;;;;;5.67;2.73;;;21.90;99.90;;;;;;5005757;28;20202;-81
2021/06/01 07:45:29;;;;;;;7.50;2.30;;;21.70;99.90;;;;;;4996747;28;20233;-82
2021/06/01 07:47:55;;;;;;;5.60;2.77;;;21.80;99.90;;;;;;4996793;28;20212;-82
2021/06/01 07:50:31;;;;;;;2.70;1.90;;;21.90;99.90;;;;;;4998850;28;20175;-82
2021/06/01 07:53:09;;;;;;;5.07;2.23;;;21.80;64.10;;;;;;4999766;28;20162;-82
2021/06/01 07:55:41;;;;;;;4.10;2.57;;;21.80;57.90;;;;;;4994185;28;20171;-82
2021/06/01 07:58:12;;;;;;;6.20;3.13;;;21.80;82.60;;;;;;4986361;28;20179;-82
2021/06/01 08:00:42;;;;;;;3.40;2.43;;;21.90;81.70;;;;;;4991379;28;20184;-82
2021/06/01 08:03:37;;;;;;;4.43;2.47;;;22.10;10.90;;;;;;4996554;28;20181;-82
2021/06/01 08:06:12;;;;;;;5.93;2.07;;;22.20;1.00;;;;;;4995881;28;20292;-81
2021/06/01 08:08:50;;;;;;;5.67;2.60;;;22.40;1.00;;;;;;4995478;28;20172;-81
2021/06/01 08:14:15;;;;;;;3.57;1.93;;;22.20;1.00;;;;;;4975151;28;20199;-82
2021/06/01 08:16:45;;;;;;;5.90;2.60;;;22.40;1.00;;;;;;4975009;28;20198;-82
2021/06/01 08:19:17;;;;;;;3.83;2.47;;;22.10;1.00;;;;;;4975764;28;20166;-81
2021/06/01 08:24:18;;;;;;;5.87;2.50;;;22.10;1.00;;;;;;4992168;28;20182;-79
2021/06/01 08:26:45;;;;;;;5.63;2.33;;;22.40;1.00;;;;;;4993533;28;20206;-77
2021/06/01 08:29:13;;;;;;;3.47;2.30;;;22.20;1.00;;;;;;4994313;28;20171;-77
2021/06/01 08:31:39;;;;;;;6.40;2.50;;;22.40;1.00;;;;;;4994369;28;20178;-76
2021/06/01 08:34:05;;;;;;;4.27;1.97;;;22.70;1.00;;;;;;4995105;28;20195;-78
2021/06/01 08:36:34;;;;;;;7.10;2.43;;;22.60;1.00;;;;;;4994625;28;20201;-77
2021/06/01 08:39:00;;;;;;;4.93;2.53;;;22.70;1.00;;;;;;4994021;28;20249;-76
2021/06/01 08:41:26;;;;;;;5.93;2.70;;;22.70;1.00;;;;;;4994323;28;20257;-76
2021/06/01 08:43:53;;;;;;;5.33;2.80;;;22.70;1.00;;;;;;4994723;28;20186;-77
2021/06/01 08:46:24;;;;;;;5.23;2.47;;;22.60;1.00;;;;;;4993869;28;20201;-75
2021/06/01 08:48:51;;;;;;;5.40;2.57;;;22.70;1.00;;;;;;4993800;28;20167;-77
2021/06/01 08:51:20;;;;;;;5.57;2.37;;;22.80;1.00;;;;;;4994636;28;20174;-79
2021/06/01 08:53:50;;;;;;;7.63;2.67;;;22.90;1.00;;;;;;4993050;28;20535;-75
2021/06/01 08:56:16;;;;;;;5.43;2.53;;;22.80;1.00;;;;;;4993588;28;20196;-77
2021/06/01 08:58:43;;;;;;;3.93;2.13;;;22.80;1.00;;;;;;4994278;28;20177;-76
2021/06/01 09:01:10;;;;;;;3.60;2.07;;;22.70;1.00;;;;;;4995338;28;20202;-78
2021/06/01 09:03:41;;;;;;;5.07;2.30;;;22.60;1.00;;;;;;4995369;28;20167;-75
2021/06/01 09:06:28;;;;;;;3.70;2.33;;;22.80;1.00;;;;;;4994165;28;20233;-77
2021/06/01 09:14:33;;;;;;;6.57;2.40;;;22.80;1.00;;;;;;4996158;28;20519;-78
2021/06/01 09:22:33;;;;;;;3.87;2.40;;;22.90;1.00;;;;;;4996583;28;20167;-76
2021/06/01 09:25:15;;;;;;;3.83;2.03;;;23.20;1.00;;;;;;4995626;28;20678;-76
2021/06/01 09:27:52;;;;;;;8.40;1.90;;;23.10;1.00;;;;;;4995042;28;20199;-75
2021/06/01 09:30:37;;;;;;;4.93;1.80;;;23.10;1.00;;;;;;4995275;28;20170;-75
2021/06/01 09:33:09;;;;;;;2.50;1.70;;;23.20;1.00;;;;;;4991094;28;20184;-77
2021/06/01 09:35:54;;;;;;;8.10;2.30;;;23.20;1.00;;;;;;4984739;28;20653;-76
2021/06/01 09:38:28;;;;;;;4.37;2.27;;;22.80;1.00;;;;;;4973751;28;20215;-75
2021/06/01 09:41:13;;;;;;;4.37;2.10;;;22.90;1.00;;;;;;4976292;28;20242;-76
2021/06/01 09:44:00;;;;;;;5.17;1.90;;;22.90;1.00;;;;;;5000760;28;20187;-75
2021/06/01 09:46:36;;;;;;;4.00;2.13;;;22.90;1.00;;;;;;4999989;28;20569;-78
2021/06/01 09:49:14;;;;;;;4.00;2.13;;;23.10;1.00;;;;;;4998814;28;20251;-77
2021/06/01 09:51:44;;;;;;;5.33;2.20;;;23.00;1.00;;;;;;4996757;28;20193;-77
2021/06/01 09:54:29;;;;;;;8.10;2.60;;;23.00;1.00;;;;;;4997456;28;20163;-76
2021/06/01 09:56:57;;;;;;;4.23;2.00;;;23.00;1.00;;;;;;4997588;28;20184;-77
2021/06/01 09:59:23;;;;;;;3.90;2.10;;;22.80;1.00;;;;;;4997851;28;20252;-75
2021/06/01 10:01:49;;;;;;;6.50;2.07;;;23.00;1.00;;;;;;4998607;28;20206;-79
2021/06/01 10:04:25;;;;;;;6.57;2.33;;;22.90;1.00;;;;;;4996449;28;20167;-77
2021/06/01 10:06:52;;;;;;;4.17;2.20;;;22.90;1.00;;;;;;4997947;28;20229;-77
2021/06/01 10:09:18;;;;;;;4.97;2.30;;;23.00;1.00;;;;;;5001270;28;20222;-77
2021/06/01 10:11:57;;;;;;;5.07;2.33;;;23.00;1.00;;;;;;5002420;28;20266;-78
2021/06/01 10:14:24;;;;;;;6.83;2.20;;;22.90;1.00;;;;;;5003067;28;20261;-75
2021/06/01 10:16:51;;;;;;;6.63;2.40;;;22.90;1.00;;;;;;4998697;28;20195;-76
2021/06/01 10:19:17;;;;;;;4.93;2.07;;;23.00;1.00;;;;;;4997528;28;20197;-76
2021/06/01 10:21:44;;;;;;;4.97;2.60;;;23.00;1.00;;;;;;4998577;28;20176;-77
2021/06/01 10:24:13;;;;;;;3.10;1.80;;;23.30;1.00;;;;;;5000894;28;20215;-75
2021/06/01 10:26:41;;;;;;;5.50;2.43;;;23.40;1.00;;;;;;5015385;28;20211;-78
2021/06/01 10:29:08;;;;;;;4.47;2.23;;;23.70;1.00;;;;;;5005521;28;20164;-78
2021/06/01 10:31:35;;;;;;;4.93;2.20;;;23.80;1.00;;;;;;5019808;28;20267;-76
2021/06/01 10:34:03;;;;;;;7.57;2.93;;;24.10;1.00;;;;;;5001870;28;20199;-76
2021/06/01 10:44:54;;;;;;;4.17;2.40;;;24.10;1.00;;;;;;4997056;28;20198;-77
2021/06/01 10:50:22;;;;;;;4.60;2.30;;;24.10;1.00;;;;;;4998028;28;20169;-77
2021/06/01 10:53:08;;;;;;;5.07;2.60;;;24.10;1.00;;;;;;4996769;28;20208;-78
2021/06/01 10:56:04;;;;;;;7.63;2.60;;;24.00;1.00;;;;;;4997071;28;20703;-78
2021/06/01 10:58:41;;;;;;;3.50;2.30;;;24.00;1.00;;;;;;4989180;28;20184;-78
2021/06/01 11:04:20;;;;;;;6.43;2.63;;;24.60;1.00;;;;;;4996845;28;20556;-75
2021/06/01 11:06:53;;;;;;;6.07;2.47;;;24.30;1.00;;;;;;5012381;28;20222;-76
2021/06/01 11:09:34;;;;;;;4.57;2.27;;;24.10;1.00;;;;;;4997536;28;20181;-78
2021/06/01 11:12:20;;;;;;;5.93;2.60;;;24.20;1.00;;;;;;4996271;28;20172;-78
2021/06/01 11:14:57;;;;;;;5.20;2.20;;;24.10;1.00;;;;;;4997572;28;20258;-79
2021/06/01 11:17:43;;;;;;;4.17;2.00;;;23.90;1.00;;;;;;4996911;28;20185;-77
2021/06/01 11:20:16;;;;;;;2.23;1.70;;;24.00;1.00;;;;;;4993882;28;20765;-77
2021/06/01 11:22:58;;;;;;;4.03;2.23;;;24.20;1.00;;;;;;5004229;28;20708;-77
2021/06/01 11:33:33;;;;;;;3.13;2.40;;;24.90;1.00;;;;;;5018852;28;20184;-78
2021/06/01 11:36:02;;;;;;;3.30;1.93;;;24.50;1.00;;;;;;5018509;28;20953;-76
2021/06/01 11:43:46;;;;;;;5.63;2.10;;;24.50;1.00;;;;;;4994842;28;20580;-77
2021/06/01 11:51:28;;;;;;;4.70;2.10;;;24.70;1.00;;;;;;4994703;28;20244;-75
2021/06/01 11:54:09;;;;;;;5.43;2.20;;;24.40;1.00;;;;;;4994807;28;20265;-77
2021/06/01 11:57:01;;;;;;;5.83;2.27;;;24.20;1.00;;;;;;4994220;28;20202;-76
2021/06/01 12:02:34;;;;;;;3.03;1.90;;;24.40;1.00;;;;;;4994384;28;20195;-76
2021/06/01 12:19:00;;;;;;;5.60;2.10;;;24.80;1.00;;;;;;4994489;28;20180;-75
2021/06/01 12:21:33;;;;;;;4.73;1.83;;;24.80;1.00;;;;;;4995597;28;20180;-76
2021/06/01 12:24:13;;;;;;;4.50;2.10;;;24.60;1.00;;;;;;4994795;28;20201;-76
2021/06/01 12:32:17;;;;;;;4.20;2.40;;;24.90;1.00;;;;;;4994515;28;20690;-78
2021/06/01 12:43:36;;;;;;;4.03;2.10;;;24.90;1.00;;;;;;4977973;28;20205;-78
2021/06/01 12:46:15;;;;;;;6.73;2.50;;;24.90;1.00;;;;;;4977336;28;20181;-78
2021/06/01 13:31:40;;;;;;;5.33;1.90;;;25.50;1.00;;;;;;4999491;28;20260;-79
2021/06/01 13:39:32;;;;;;;4.70;1.80;;;25.90;1.00;;;;;;5000848;28;20188;-79
2021/06/01 13:47:18;;;;;;;2.40;1.90;;;26.10;1.00;;;;;;4999376;28;20997;-80
2021/06/01 13:49:47;;;;;;;6.20;2.03;;;25.90;1.00;;;;;;4996600;28;20182;-79
2021/06/01 13:58:15;;;;;;;2.77;1.87;;;25.90;1.00;;;;;;4986806;28;20256;-79
2021/06/01 14:00:57;;;;;;;6.07;1.93;;;26.10;1.00;;;;;;4996800;28;20705;-78
2021/06/01 14:20:29;;;;;;;4.23;2.53;;;26.10;1.00;;;;;;4982369;28;20233;-79
2021/06/01 15:22:47;;;;;;;3.20;2.10;;;27.80;1.00;;;;;;4975241;28;20245;-79
2021/06/01 15:31:28;;;;;;;8.00;2.83;;;27.40;1.00;;;;;;4991238;28;20190;-79
2021/06/01 16:13:25;;;;;;;7.03;2.10;;;28.00;1.00;;;;;;4994106;28;20182;-79
2021/06/01 16:29:48;;;;;;;4.20;2.30;;;28.20;1.00;;;;;;4994464;28;20198;-79
2021/06/01 16:43:32;;;;;;;9.27;2.60;;;27.60;1.00;;;;;;4994657;28;20189;-81
2021/06/01 17:05:59;;;;;;;7.10;2.20;;;27.30;1.00;;;;;;5001607;28;20595;-80
2021/06/01 17:13:31;;;;;;;3.40;1.93;;;28.60;1.00;;;;;;5000158;28;20201;-79
2021/06/01 17:15:57;;;;;;;5.20;2.17;;;28.30;1.00;;;;;;5000378;28;20260;-78
2021/06/01 17:18:50;;;;;;;4.60;2.25;;;28.20;1.00;;;;;;5001353;28;20193;-81
2021/06/01 17:34:35;;;;;;;8.40;2.77;;;28.80;1.00;;;;;;5021652;28;20183;-82
2021/06/01 17:35:03;;;;;;;4.78;2.58;;;29.40;1.00;;;;;;5021291;28;20232;-80
2021/06/01 17:37:29;;;;;;;4.85;2.55;;;30.00;1.00;;;;;;5012359;28;21116;-79
2021/06/01 17:39:55;;;;;;;3.53;2.30;;;30.60;1.00;;;;;;4999471;28;20202;-80
2021/06/01 17:42:27;;;;;;;6.50;2.50;;;30.80;1.00;;;;;;4998670;28;20249;-82
2021/06/01 17:44:57;;;;;;;5.20;2.60;;;31.60;1.00;;;;;;4998881;28;20214;-80
2021/06/01 17:47:25;;;;;;;6.00;2.60;;;32.50;1.00;;;;;;4998213;28;20218;-81
2021/06/01 17:49:53;;;;;;;11.48;2.47;;;32.10;1.00;;;;;;4998713;28;20174;-80
2021/06/01 17:52:24;;;;;;;5.88;2.63;;;32.00;1.00;;;;;;5000211;28;20198;-79
2021/06/01 17:54:52;;;;;;;7.70;3.25;;;32.20;1.00;;;;;;5000016;28;20233;-83
2021/06/01 17:57:20;;;;;;;7.22;2.88;;;32.90;1.00;;;;;;4999862;28;20249;-79
2021/06/01 17:59:47;;;;;;;7.40;3.20;;;33.60;1.00;;;;;;4993902;28;20171;-81
2021/06/01 18:02:16;;;;;;;5.00;2.60;;;33.20;1.00;;;;;;4978747;28;20511;-80
2021/06/01 18:04:44;;;;;;;12.43;3.40;;;33.10;1.00;;;;;;4980013;28;20201;-79
2021/06/01 18:07:16;;;;;;;3.90;2.45;;;33.10;1.00;;;;;;4981210;28;20624;-80
2021/06/01 19:12:02;;;;;;;4.07;2.90;;;30.40;1.00;;;;;;4996253;28;20279;-80
2021/06/01 19:21:48;;;;;;;8.40;3.25;;;29.10;1.00;;;;;;5012588;28;20197;-79
2021/06/01 19:51:21;;;;;;;7.47;3.03;;;25.50;1.00;;;;;;4995693;28;20206;-79
2021/06/01 19:53:49;;;;;;;3.57;2.50;;;25.30;1.00;;;;;;4996007;28;20660;-79
2021/06/01 19:56:15;;;;;;;4.90;2.53;;;25.20;1.00;;;;;;5006399;28;20594;-79
2021/06/01 19:58:42;;;;;;;7.93;3.03;;;25.10;1.00;;;;;;5003213;28;20656;-79
2021/06/01 20:01:09;;;;;;;3.47;3.00;;;25.00;1.00;;;;;;4999331;28;20179;-80
2021/06/01 20:03:37;;;;;;;9.63;3.10;;;24.90;1.00;;;;;;4996461;28;20182;-80
2021/06/01 20:06:06;;;;;;;8.20;4.60;;;24.90;1.00;;;;;;5010427;28;20185;-78
2021/06/01 20:08:33;;;;;;;7.27;2.90;;;24.70;1.00;;;;;;4995200;28;20295;-78
2021/06/01 20:10:59;;;;;;;4.57;3.00;;;24.70;1.00;;;;;;4995304;28;20575;-79
2021/06/01 20:13:25;;;;;;;6.13;3.07;;;24.70;1.00;;;;;;4995216;28;20182;-77
2021/06/01 20:15:51;;;;;;;6.53;3.20;;;24.60;1.00;;;;;;4994215;28;20618;-80
2021/06/01 20:18:21;;;;;;;4.80;3.00;;;24.50;1.00;;;;;;4994988;28;20252;-81
2021/06/01 20:20:48;;;;;;;5.93;3.10;;;24.60;1.00;;;;;;4995256;28;20175;-81
2021/06/01 20:23:18;;;;;;;4.07;2.80;;;24.40;1.00;;;;;;4995072;28;20174;-79
2021/06/01 20:25:49;;;;;;;7.53;3.07;;;24.30;1.00;;;;;;4993725;28;20862;-79
2021/06/01 20:28:32;;;;;;;7.23;3.30;;;24.20;1.00;;;;;;4994351;28;20214;-78
2021/06/01 20:31:04;;;;;;;5.87;3.00;;;24.20;1.00;;;;;;4995273;28;20171;-77
2021/06/01 20:33:33;;;;;;;4.87;2.87;;;24.10;1.00;;;;;;4995549;28;20168;-81
2021/06/01 20:36:00;;;;;;;10.27;3.73;;;24.10;1.00;;;;;;4994968;28;20257;-79
2021/06/01 20:38:26;;;;;;;10.43;3.60;;;24.10;1.00;;;;;;4994529;28;20172;-78
2021/06/01 20:40:54;;;;;;;5.37;3.37;;;24.00;1.00;;;;;;4996074;28;20661;-78
2021/06/01 20:43:20;;;;;;;6.27;3.80;;;24.00;1.00;;;;;;4996061;28;20173;-77
2021/06/01 20:45:47;;;;;;;9.93;5.67;;;23.90;1.00;;;;;;4995604;28;20224;-79
2021/06/01 20:48:24;;;;;;;7.17;4.77;;;23.90;1.00;;;;;;4994507;28;20567;-77
2021/06/01 20:50:56;;;;;;;4.43;3.20;;;23.80;1.00;;;;;;4995659;28;20531;-77
2021/06/01 20:53:24;;;;;;;5.13;2.80;;;23.80;1.00;;;;;;4994366;28;20571;-78
2021/06/01 20:55:51;;;;;;;4.87;3.03;;;23.60;1.00;;;;;;4993382;28;20174;-78
2021/06/01 20:58:28;;;;;;;9.27;2.90;;;23.60;1.00;;;;;;4993525;28;20204;-79
2021/06/01 21:00:55;;;;;;;5.10;3.13;;;23.60;1.00;;;;;;4994035;28;20253;-80
2021/06/01 21:03:23;;;;;;;5.63;3.17;;;23.60;1.00;;;;;;4994535;28;20187;-77
2021/06/01 21:05:50;;;;;;;7.17;3.20;;;23.70;1.00;;;;;;4994161;28;20239;-80
2021/06/01 21:08:16;;;;;;;5.23;2.77;;;23.70;1.00;;;;;;4993951;28;20210;-78
2021/06/01 21:10:43;;;;;;;5.83;3.07;;;23.60;1.00;;;;;;4992965;28;20233;-77
2021/06/01 21:13:09;;;;;;;5.50;2.90;;;23.50;1.00;;;;;;4992625;28;20188;-77
2021/06/01 21:15:35;;;;;;;6.33;2.67;;;23.40;1.00;;;;;;4993044;28;20177;-78
2021/06/01 21:18:01;;;;;;;7.20;2.70;;;23.30;1.00;;;;;;4992447;28;20260;-78
2021/06/01 21:20:27;;;;;;;6.43;3.00;;;23.30;1.00;;;;;;4992845;28;20180;-78